Time;durP1;ratioP1;P1;durP2;ratioP2;P2;SDS_P1;SDS_P2;PMS_P1;PMS_P2;Temp;Humidity;BMP_temperature;BMP_pressure;BME280_temperature;BME280_humidity;BME280_pressure;Samples;Min_cycle;Max_cycle;Signal;HPM_P1;HPM_P2
2022/10/05 00:00:54;;;;;;;2.90;2.50;;;17.80;90.20;;;;;;5032108;28;20245;-70
2022/10/05 00:03:21;;;;;;;3.05;2.40;;;17.70;90.20;;;;;;5045072;28;20215;-70
2022/10/05 00:05:49;;;;;;;4.20;2.47;;;17.70;90.60;;;;;;5050743;28;20567;-70
2022/10/05 00:08:23;;;;;;;3.00;2.30;;;17.70;90.10;;;;;;5050717;28;20180;-70
2022/10/05 00:10:50;;;;;;;2.55;2.35;;;17.70;90.10;;;;;;5050532;28;20269;-69
2022/10/05 00:13:28;;;;;;;3.95;2.55;;;17.70;90.00;;;;;;5033945;28;20269;-69
2022/10/05 00:16:09;;;;;;;3.17;2.30;;;17.70;90.00;;;;;;5050573;28;20241;-70
2022/10/05 00:18:35;;;;;;;3.15;2.58;;;17.70;90.00;;;;;;5017454;28;20187;-70
2022/10/05 00:21:07;;;;;;;3.15;2.40;;;17.80;90.10;;;;;;5033505;28;20206;-69
2022/10/05 00:23:33;;;;;;;2.17;1.98;;;17.70;90.00;;;;;;5017195;28;20272;-70
2022/10/05 00:26:12;;;;;;;2.40;2.20;;;17.70;89.90;;;;;;5050344;28;20195;-70
2022/10/05 00:28:40;;;;;;;2.30;2.10;;;17.80;90.00;;;;;;5050324;28;20202;-70
2022/10/05 00:31:23;;;;;;;2.47;2.25;;;17.70;90.00;;;;;;5033760;28;20180;-69
2022/10/05 00:33:50;;;;;;;2.75;2.47;;;17.70;89.90;;;;;;5050272;28;20207;-69
2022/10/05 00:36:16;;;;;;;2.85;2.42;;;17.70;89.90;;;;;;5050117;28;20201;-70
2022/10/05 00:38:43;;;;;;;2.78;2.20;;;17.80;90.00;;;;;;5048807;28;20282;-70
2022/10/05 00:41:23;;;;;;;3.25;2.60;;;17.70;89.70;;;;;;5050025;28;20221;-69
2022/10/05 00:44:07;;;;;;;3.38;2.60;;;17.70;89.60;;;;;;5033129;28;20214;-70
2022/10/05 00:46:55;;;;;;;2.63;2.22;;;17.70;89.60;;;;;;5033321;28;20187;-70
2022/10/05 00:50:00;;;;;;;2.80;2.45;;;17.70;89.60;;;;;;5049955;28;20194;-69
2022/10/05 00:53:01;;;;;;;2.72;2.40;;;17.80;89.80;;;;;;5033173;28;20278;-70
2022/10/05 00:56:02;;;;;;;2.85;2.50;;;17.70;89.50;;;;;;5033082;28;20256;-70
2022/10/05 00:59:05;;;;;;;2.70;2.50;;;17.70;89.40;;;;;;5033435;28;20190;-70
2022/10/05 01:01:45;;;;;;;2.97;2.40;;;17.70;89.50;;;;;;5033198;28;20210;-70
2022/10/05 01:04:49;;;;;;;2.92;2.28;;;17.70;89.40;;;;;;5016350;28;20214;-70
2022/10/05 01:07:51;;;;;;;3.10;2.67;;;17.70;89.30;;;;;;5033242;28;20179;-70
2022/10/05 01:10:37;;;;;;;3.08;2.67;;;17.70;89.10;;;;;;5033117;28;20171;-70
2022/10/05 01:13:17;;;;;;;3.42;2.78;;;17.70;89.20;;;;;;5049539;28;20211;-69
2022/10/05 01:16:12;;;;;;;2.83;2.50;;;17.70;89.10;;;;;;5016269;28;20222;-70
2022/10/05 01:19:00;;;;;;;3.03;2.47;;;17.70;89.10;;;;;;5049588;28;20190;-70
2022/10/05 01:21:31;;;;;;;2.85;2.20;;;17.70;89.00;;;;;;5032508;28;20187;-69
2022/10/05 01:24:56;;;;;;;2.72;2.53;;;17.70;88.90;;;;;;5049131;28;20215;-69
2022/10/05 01:27:49;;;;;;;3.30;2.60;;;17.70;88.90;;;;;;5049002;28;20175;-70
2022/10/05 01:30:20;;;;;;;3.58;2.50;;;17.70;88.90;;;;;;5032594;28;20171;-70
2022/10/05 01:33:06;;;;;;;2.67;2.47;;;17.70;88.80;;;;;;5048860;28;20195;-69
2022/10/05 01:35:57;;;;;;;3.00;2.67;;;17.70;88.70;;;;;;5032843;28;20187;-70
2022/10/05 01:38:41;;;;;;;3.25;2.67;;;17.70;88.60;;;;;;5032468;28;20275;-69
2022/10/05 01:41:40;;;;;;;3.08;2.50;;;17.70;88.70;;;;;;5032132;28;20700;-70
2022/10/05 01:44:23;;;;;;;2.40;2.20;;;17.70;88.80;;;;;;5031707;28;20255;-69
2022/10/05 01:47:13;;;;;;;3.38;2.80;;;17.70;88.40;;;;;;5032296;28;20194;-70
2022/10/05 01:50:38;;;;;;;2.40;2.20;;;17.70;88.40;;;;;;5031809;28;20191;-70
2022/10/05 01:53:30;;;;;;;3.08;2.30;;;17.70;88.10;;;;;;5031723;28;20223;-70
2022/10/05 01:56:16;;;;;;;3.08;2.63;;;17.70;88.40;;;;;;5032080;28;20693;-70
2022/10/05 01:58:59;;;;;;;2.88;2.67;;;17.70;88.10;;;;;;5031911;28;20176;-70
2022/10/05 02:01:39;;;;;;;2.63;2.42;;;17.70;88.20;;;;;;5032110;28;20533;-70
2022/10/05 02:04:21;;;;;;;4.35;2.80;;;17.70;88.30;;;;;;5048366;28;20214;-70
2022/10/05 02:06:51;;;;;;;2.85;2.50;;;17.70;88.30;;;;;;5032123;28;20172;-70
2022/10/05 02:09:28;;;;;;;2.63;2.42;;;17.70;88.30;;;;;;5031772;28;20683;-70
2022/10/05 02:12:05;;;;;;;2.60;2.40;;;17.60;88.10;;;;;;5031884;28;20210;-69
2022/10/05 02:14:39;;;;;;;2.83;2.47;;;17.60;88.00;;;;;;5085325;22;20325;-67
2022/10/05 02:17:13;;;;;;;2.70;2.40;;;17.60;87.80;;;;;;5018464;28;20170;-66
2022/10/05 02:20:09;;;;;;;2.70;2.50;;;17.60;87.80;;;;;;5018775;28;20264;-66
2022/10/05 02:22:46;;;;;;;2.35;2.15;;;17.60;87.70;;;;;;5021555;28;20297;-66
2022/10/05 02:25:16;;;;;;;2.67;2.47;;;17.60;87.60;;;;;;5030151;28;20284;-67
2022/10/05 02:28:37;;;;;;;2.80;2.30;;;17.60;87.60;;;;;;5044767;28;20189;-67
2022/10/05 02:31:11;;;;;;;3.00;2.50;;;17.60;87.60;;;;;;5023705;28;20194;-66
2022/10/05 02:33:37;;;;;;;2.70;2.50;;;17.70;87.70;;;;;;5031703;28;20254;-67
2022/10/05 02:36:18;;;;;;;3.60;2.53;;;17.70;87.70;;;;;;5031432;28;20178;-67
2022/10/05 02:39:13;;;;;;;3.00;2.70;;;17.60;87.60;;;;;;5031620;28;20183;-67
2022/10/05 02:41:43;;;;;;;2.60;2.40;;;17.60;87.60;;;;;;5014851;28;20191;-66
2022/10/05 02:44:54;;;;;;;2.58;2.03;;;17.60;87.60;;;;;;5014692;28;20223;-67
2022/10/05 02:47:52;;;;;;;2.33;2.13;;;17.60;87.40;;;;;;5014728;28;20274;-66
2022/10/05 02:50:59;;;;;;;2.50;2.30;;;17.60;87.20;;;;;;5031473;28;20180;-66
2022/10/05 02:54:13;;;;;;;3.40;2.30;;;17.60;87.10;;;;;;5030985;28;20206;-66
2022/10/05 02:57:00;;;;;;;2.53;2.33;;;17.60;87.20;;;;;;4972528;28;20210;-66
2022/10/05 02:59:42;;;;;;;2.30;2.10;;;17.60;87.20;;;;;;5031137;28;20183;-67
2022/10/05 03:02:25;;;;;;;2.50;2.30;;;17.60;87.00;;;;;;5014168;28;20195;-66
2022/10/05 03:05:24;;;;;;;2.40;2.20;;;17.60;86.80;;;;;;5031353;28;20215;-66
2022/10/05 03:08:06;;;;;;;2.28;2.08;;;17.60;87.00;;;;;;5031328;28;20187;-66
2022/10/05 03:11:14;;;;;;;2.20;2.00;;;17.60;86.80;;;;;;5031259;28;20215;-66
2022/10/05 03:14:08;;;;;;;2.40;2.20;;;17.60;86.90;;;;;;5031031;28;20568;-66
2022/10/05 03:17:01;;;;;;;2.88;2.35;;;17.60;86.60;;;;;;5031380;28;20208;-66
2022/10/05 03:19:44;;;;;;;2.88;2.47;;;17.60;86.60;;;;;;5031150;28;20213;-66
2022/10/05 03:22:43;;;;;;;2.00;1.90;;;17.60;86.60;;;;;;5030606;28;20175;-66
2022/10/05 03:25:21;;;;;;;2.20;2.05;;;17.60;86.20;;;;;;5014372;28;20242;-66
2022/10/05 03:28:14;;;;;;;2.03;1.92;;;17.60;86.50;;;;;;5030688;28;20186;-67
2022/10/05 03:31:19;;;;;;;3.63;2.10;;;17.60;86.50;;;;;;5030568;28;20180;-66
2022/10/05 03:33:59;;;;;;;2.28;2.08;;;17.60;86.50;;;;;;5030972;28;20675;-67
2022/10/05 03:36:56;;;;;;;2.30;2.10;;;17.60;86.50;;;;;;5030789;28;20194;-67
2022/10/05 03:40:05;;;;;;;2.20;2.00;;;17.60;86.50;;;;;;5031009;28;20187;-66
2022/10/05 03:42:52;;;;;;;2.38;1.92;;;17.60;86.20;;;;;;5014030;28;20212;-65
2022/10/05 03:45:47;;;;;;;3.30;1.95;;;17.60;86.20;;;;;;5030564;28;20199;-67
2022/10/05 03:48:50;;;;;;;2.58;1.90;;;17.60;86.50;;;;;;5030648;28;20186;-66
2022/10/05 03:51:31;;;;;;;2.25;2.05;;;17.60;86.00;;;;;;5030554;28;20265;-67
2022/10/05 03:54:24;;;;;;;2.15;2.00;;;17.60;86.10;;;;;;5030695;28;20222;-66
2022/10/05 03:57:14;;;;;;;2.10;1.90;;;17.60;86.00;;;;;;5014266;28;20184;-67
2022/10/05 04:00:01;;;;;;;2.20;2.00;;;17.60;86.00;;;;;;5014197;28;20198;-66
2022/10/05 04:02:42;;;;;;;2.20;2.00;;;17.50;86.00;;;;;;5030402;28;20457;-66
2022/10/05 04:05:08;;;;;;;1.83;1.73;;;17.60;85.80;;;;;;5030493;28;20203;-66
2022/10/05 04:07:55;;;;;;;2.65;2.10;;;17.50;85.80;;;;;;5014121;28;20187;-67
2022/10/05 04:10:32;;;;;;;2.67;2.03;;;17.50;85.60;;;;;;5030504;28;20194;-66
2022/10/05 04:13:10;;;;;;;1.90;1.80;;;17.50;85.70;;;;;;5016209;28;20203;-66
2022/10/05 04:15:58;;;;;;;2.30;2.10;;;17.50;85.70;;;;;;5033911;28;20233;-67
2022/10/05 04:18:37;;;;;;;2.40;2.20;;;17.50;85.70;;;;;;5017490;28;20192;-67
2022/10/05 04:21:22;;;;;;;2.40;2.20;;;17.50;85.70;;;;;;5017375;28;20260;-67
2022/10/05 04:24:08;;;;;;;1.90;1.80;;;17.50;85.70;;;;;;5048400;28;20221;-67
2022/10/05 04:27:05;;;;;;;2.28;2.10;;;17.50;86.20;;;;;;5037101;28;20182;-66
2022/10/05 04:29:54;;;;;;;2.45;2.25;;;17.50;85.50;;;;;;5037067;28;20186;-66
2022/10/05 04:32:36;;;;;;;2.33;2.15;;;17.50;85.60;;;;;;5053359;28;20182;-66
2022/10/05 04:35:33;;;;;;;2.30;2.10;;;17.50;85.40;;;;;;5037194;28;20213;-66
2022/10/05 04:38:21;;;;;;;2.60;2.40;;;17.50;85.20;;;;;;5036864;28;20186;-66
2022/10/05 04:41:08;;;;;;;2.50;2.30;;;17.60;85.40;;;;;;5036730;28;20187;-66
2022/10/05 04:43:59;;;;;;;2.63;2.30;;;17.50;85.30;;;;;;5036941;28;20256;-66
2022/10/05 04:46:47;;;;;;;2.30;2.00;;;17.50;85.20;;;;;;5054563;28;20243;-67
2022/10/05 04:49:30;;;;;;;2.30;2.10;;;17.60;85.30;;;;;;5053365;28;20178;-66
2022/10/05 04:52:22;;;;;;;2.30;2.10;;;17.50;85.10;;;;;;5053198;28;20182;-67
2022/10/05 04:55:13;;;;;;;2.67;2.47;;;17.60;85.20;;;;;;5036520;28;20207;-66
2022/10/05 04:58:09;;;;;;;2.90;2.60;;;17.60;85.30;;;;;;5053315;28;20275;-66
2022/10/05 05:00:51;;;;;;;2.50;2.30;;;17.50;85.10;;;;;;5053026;28;20220;-68
2022/10/05 05:03:32;;;;;;;2.13;2.03;;;17.50;85.10;;;;;;5036278;28;20218;-67
2022/10/05 05:06:29;;;;;;;2.20;2.10;;;17.50;85.00;;;;;;5053205;28;20214;-67
2022/10/05 05:09:31;;;;;;;2.58;2.38;;;17.50;85.00;;;;;;5053132;28;20183;-67
2022/10/05 05:12:02;;;;;;;2.70;2.50;;;17.50;84.90;;;;;;5036318;28;20565;-67
2022/10/05 05:15:08;;;;;;;2.50;2.30;;;17.50;85.00;;;;;;5052184;28;20246;-68
2022/10/05 05:18:09;;;;;;;2.03;1.85;;;17.50;84.90;;;;;;5052148;28;20206;-67
2022/10/05 05:20:57;;;;;;;2.50;2.30;;;17.50;84.80;;;;;;5035416;28;20185;-67
2022/10/05 05:23:40;;;;;;;2.55;2.35;;;17.50;84.70;;;;;;5051434;28;20241;-67
2022/10/05 05:26:46;;;;;;;1.90;1.80;;;17.50;84.70;;;;;;5035373;28;20269;-67
2022/10/05 05:29:42;;;;;;;2.30;2.05;;;17.50;84.80;;;;;;5035371;28;20216;-67
2022/10/05 05:32:39;;;;;;;2.40;2.20;;;17.50;84.60;;;;;;5035402;28;20193;-67
2022/10/05 05:35:59;;;;;;;2.40;2.22;;;17.50;84.40;;;;;;5051651;28;20207;-67
2022/10/05 05:38:47;;;;;;;2.70;2.50;;;17.50;84.20;;;;;;5041106;28;20781;-67
2022/10/05 05:41:41;;;;;;;2.30;2.20;;;17.50;84.10;;;;;;5051702;28;20193;-66
2022/10/05 05:44:28;;;;;;;2.80;2.58;;;17.50;83.40;;;;;;5035298;28;20309;-67
2022/10/05 05:47:24;;;;;;;2.75;2.55;;;17.50;83.70;;;;;;5035326;28;20190;-67
2022/10/05 05:50:32;;;;;;;2.70;2.50;;;17.50;83.90;;;;;;5051756;28;20186;-67
2022/10/05 05:53:19;;;;;;;3.03;2.70;;;17.50;84.00;;;;;;5050533;28;20194;-66
2022/10/05 05:55:59;;;;;;;2.85;2.65;;;17.50;83.40;;;;;;5051143;28;20277;-66
2022/10/05 05:58:38;;;;;;;2.75;2.55;;;17.50;83.40;;;;;;5034827;28;20193;-66
2022/10/05 06:01:19;;;;;;;2.90;2.60;;;17.50;83.20;;;;;;5034614;28;20182;-67
2022/10/05 06:03:58;;;;;;;3.85;2.50;;;17.40;83.30;;;;;;5051246;28;20225;-67
2022/10/05 06:06:31;;;;;;;2.47;2.22;;;17.40;83.20;;;;;;5035236;28;20187;-67
2022/10/05 06:09:25;;;;;;;3.10;2.80;;;17.50;83.40;;;;;;5043917;28;20179;-66
2022/10/05 06:12:28;;;;;;;2.60;2.40;;;17.40;83.10;;;;;;5051410;28;20220;-66
2022/10/05 06:15:05;;;;;;;3.30;3.00;;;17.40;82.50;;;;;;5034384;28;20210;-66
2022/10/05 06:17:42;;;;;;;3.17;2.88;;;17.40;82.50;;;;;;5051145;28;20209;-66
2022/10/05 06:20:28;;;;;;;3.17;2.90;;;17.40;82.70;;;;;;5034475;28;20213;-66
2022/10/05 06:23:03;;;;;;;3.00;2.70;;;17.40;82.70;;;;;;5034190;28;20298;-66
2022/10/05 06:25:47;;;;;;;3.00;2.80;;;17.50;82.80;;;;;;5050981;28;20185;-66
2022/10/05 06:28:17;;;;;;;3.17;2.97;;;17.40;81.90;;;;;;5034231;28;20186;-67
2022/10/05 06:31:28;;;;;;;3.00;2.80;;;17.40;81.80;;;;;;5035229;28;20182;-67
2022/10/05 06:34:38;;;;;;;4.15;3.22;;;17.50;82.40;;;;;;5034619;28;20202;-66
2022/10/05 06:37:19;;;;;;;2.97;2.78;;;17.40;82.40;;;;;;5050473;28;20181;-66
2022/10/05 06:40:09;;;;;;;3.20;2.90;;;17.40;81.80;;;;;;5034511;28;20179;-67
2022/10/05 06:42:49;;;;;;;3.58;3.28;;;17.50;82.10;;;;;;5050658;28;20237;-66
2022/10/05 06:45:47;;;;;;;3.20;2.90;;;17.40;81.80;;;;;;5034800;28;20686;-67
2022/10/05 06:49:01;;;;;;;3.20;3.00;;;17.50;82.00;;;;;;5035440;28;20186;-66
2022/10/05 06:52:17;;;;;;;3.70;3.10;;;17.50;81.90;;;;;;5036749;28;20182;-67
2022/10/05 06:55:16;;;;;;;2.95;2.75;;;17.40;81.80;;;;;;5033766;28;20249;-67
2022/10/05 06:57:48;;;;;;;2.95;2.70;;;17.50;81.90;;;;;;5050702;28;20290;-66
2022/10/05 07:00:30;;;;;;;3.88;3.15;;;17.50;81.80;;;;;;5034235;28;20187;-66
2022/10/05 07:03:21;;;;;;;3.10;2.90;;;17.50;81.50;;;;;;5050160;28;20207;-67
2022/10/05 07:06:09;;;;;;;3.60;3.30;;;17.50;81.10;;;;;;5050413;28;20179;-67
2022/10/05 07:09:13;;;;;;;3.50;3.17;;;17.50;81.40;;;;;;5033802;28;20222;-67
2022/10/05 07:12:13;;;;;;;3.30;3.00;;;17.50;81.30;;;;;;5050208;28;20275;-66
2022/10/05 07:15:27;;;;;;;3.47;3.17;;;17.50;81.20;;;;;;5050200;28;20217;-66
2022/10/05 07:18:13;;;;;;;3.40;3.10;;;17.50;81.00;;;;;;5050172;28;20218;-66
2022/10/05 07:21:26;;;;;;;2.95;2.75;;;17.60;81.00;;;;;;5033645;28;20190;-66
2022/10/05 07:24:22;;;;;;;3.30;3.00;;;17.60;81.00;;;;;;5033726;28;20313;-67
2022/10/05 07:27:06;;;;;;;3.25;2.97;;;17.60;80.60;;;;;;5033892;28;20182;-67
2022/10/05 07:29:49;;;;;;;3.22;2.92;;;17.60;80.50;;;;;;5050411;28;20225;-67
2022/10/05 07:32:33;;;;;;;4.20;3.80;;;17.60;80.60;;;;;;5033390;28;20183;-66
2022/10/05 07:37:53;;;;;;;3.40;3.05;;;17.60;80.70;;;;;;5050107;28;20689;-67
2022/10/05 07:38:22;;;;;;;3.10;2.90;;;17.70;80.70;;;;;;5049966;28;20183;-67
2022/10/05 07:41:03;;;;;;;3.47;3.17;;;17.80;80.60;;;;;;5033483;28;20187;-66
2022/10/05 07:43:44;;;;;;;3.47;3.17;;;17.70;81.10;;;;;;5050123;28;20228;-66
2022/10/05 07:46:56;;;;;;;3.25;3.00;;;17.80;80.50;;;;;;5067068;28;20264;-66
2022/10/05 07:49:52;;;;;;;3.80;3.15;;;17.80;80.40;;;;;;5053664;28;20186;-67
2022/10/05 07:52:44;;;;;;;3.78;3.35;;;17.80;80.30;;;;;;5053658;28;20701;-67
2022/10/05 07:55:20;;;;;;;3.45;3.15;;;17.80;80.40;;;;;;5054068;28;20206;-66
2022/10/05 07:57:58;;;;;;;3.20;3.00;;;17.80;80.50;;;;;;5053814;28;20328;-68
2022/10/05 08:00:44;;;;;;;3.25;2.97;;;17.90;80.60;;;;;;5053333;28;20190;-66
2022/10/05 08:03:32;;;;;;;3.53;3.22;;;17.90;80.80;;;;;;5036870;28;20217;-67
2022/10/05 08:06:02;;;;;;;2.97;2.78;;;17.90;80.80;;;;;;5053538;28;20187;-67
2022/10/05 08:08:48;;;;;;;3.15;2.95;;;17.90;80.90;;;;;;5050642;28;20185;-67
2022/10/05 08:11:28;;;;;;;2.97;2.78;;;17.90;81.20;;;;;;5054378;28;20265;-67
2022/10/05 08:14:05;;;;;;;3.70;3.40;;;17.90;81.20;;;;;;5054454;28;20221;-67
2022/10/05 08:16:37;;;;;;;3.65;3.35;;;17.90;81.40;;;;;;5054595;28;20320;-66
2022/10/05 08:19:21;;;;;;;2.83;2.63;;;17.90;81.60;;;;;;5050269;28;20195;-67
2022/10/05 08:21:59;;;;;;;3.42;3.13;;;17.90;81.70;;;;;;5054298;28;20178;-67
2022/10/05 08:24:52;;;;;;;3.00;2.80;;;17.90;81.80;;;;;;5053259;28;20226;-67
2022/10/05 08:27:37;;;;;;;2.80;2.60;;;17.90;81.90;;;;;;5069760;28;20186;-67
2022/10/05 08:30:07;;;;;;;3.58;3.28;;;18.00;82.20;;;;;;5053305;28;20182;-67
2022/10/05 08:33:05;;;;;;;3.40;3.10;;;18.00;82.10;;;;;;5069456;28;20186;-66
2022/10/05 08:35:45;;;;;;;2.83;2.63;;;18.00;82.40;;;;;;5036671;28;20193;-67
2022/10/05 08:38:15;;;;;;;2.50;2.30;;;18.00;82.40;;;;;;5053097;28;20270;-67
2022/10/05 08:41:23;;;;;;;2.70;2.50;;;18.00;82.40;;;;;;5036176;28;20178;-67
2022/10/05 08:44:22;;;;;;;2.63;2.42;;;18.00;82.50;;;;;;5035923;28;20217;-67
2022/10/05 08:47:40;;;;;;;2.92;2.35;;;18.00;82.40;;;;;;5069514;28;20190;-66
2022/10/05 08:50:42;;;;;;;2.80;2.60;;;18.00;82.60;;;;;;5069558;28;20263;-67
2022/10/05 08:53:38;;;;;;;2.70;2.50;;;18.00;82.90;;;;;;5052310;28;20194;-67
2022/10/05 08:56:12;;;;;;;2.60;2.40;;;18.00;83.10;;;;;;5053817;28;20236;-67
2022/10/05 08:59:10;;;;;;;2.97;2.42;;;18.00;83.10;;;;;;5051606;28;20190;-67
2022/10/05 09:01:51;;;;;;;2.28;2.17;;;18.00;83.20;;;;;;5085889;28;20187;-67
2022/10/05 09:05:00;;;;;;;3.10;2.40;;;18.00;83.30;;;;;;5052385;28;20222;-67
2022/10/05 09:07:43;;;;;;;2.47;2.28;;;18.00;83.50;;;;;;5069229;28;20186;-67
2022/10/05 09:10:56;;;;;;;2.83;2.63;;;18.00;83.60;;;;;;5053742;28;20195;-66
2022/10/05 09:13:59;;;;;;;3.00;2.70;;;18.00;83.60;;;;;;5052008;28;20214;-67
2022/10/05 09:16:51;;;;;;;2.47;2.30;;;18.00;83.80;;;;;;5068872;28;20186;-67
2022/10/05 09:19:48;;;;;;;2.72;2.50;;;18.00;83.90;;;;;;5052267;28;20186;-66
2022/10/05 09:22:44;;;;;;;2.40;2.20;;;18.00;84.00;;;;;;5053138;28;20187;-65
2022/10/05 09:25:42;;;;;;;2.40;2.20;;;18.00;84.20;;;;;;5053326;28;20225;-66
2022/10/05 09:28:31;;;;;;;2.33;2.13;;;18.00;84.30;;;;;;5052046;28;20187;-67
2022/10/05 09:31:37;;;;;;;2.10;2.00;;;18.00;84.40;;;;;;5068636;28;20183;-67
2022/10/05 09:34:40;;;;;;;2.53;2.20;;;18.00;84.50;;;;;;5068476;28;20202;-66
2022/10/05 09:37:57;;;;;;;2.20;1.95;;;18.00;84.50;;;;;;5068445;28;20218;-66
2022/10/05 09:40:48;;;;;;;2.45;2.25;;;18.00;84.70;;;;;;5040472;28;20248;-66
2022/10/05 09:43:28;;;;;;;2.33;2.13;;;18.00;84.80;;;;;;5051310;28;20238;-66
2022/10/05 09:46:28;;;;;;;2.10;2.00;;;18.00;85.00;;;;;;5051628;28;20186;-67
2022/10/05 09:49:37;;;;;;;2.15;1.95;;;18.00;85.00;;;;;;5051692;28;20197;-66
2022/10/05 09:52:51;;;;;;;2.20;2.00;;;18.00;85.50;;;;;;5051564;28;20232;-67
2022/10/05 09:55:45;;;;;;;2.25;2.05;;;18.00;85.50;;;;;;5067948;28;20217;-66
2022/10/05 09:58:16;;;;;;;1.95;1.80;;;18.00;85.30;;;;;;5052837;28;20674;-66
2022/10/05 10:01:15;;;;;;;2.30;2.05;;;18.00;85.70;;;;;;5067988;28;20201;-67
2022/10/05 10:04:19;;;;;;;1.90;1.77;;;18.00;86.20;;;;;;5051845;28;20236;-66
2022/10/05 10:07:34;;;;;;;2.30;2.10;;;18.00;86.10;;;;;;5036523;28;20194;-66
2022/10/05 10:10:30;;;;;;;2.10;2.00;;;18.00;85.90;;;;;;5049117;28;20194;-67
2022/10/05 10:13:30;;;;;;;2.00;1.90;;;18.00;86.20;;;;;;5067687;28;20654;-67
2022/10/05 10:16:36;;;;;;;1.80;1.70;;;18.00;86.50;;;;;;5052181;28;20232;-67
2022/10/05 10:19:57;;;;;;;2.25;2.10;;;18.00;86.60;;;;;;5051451;28;20186;-66
2022/10/05 10:22:48;;;;;;;1.98;1.88;;;18.00;86.80;;;;;;5028415;28;20297;-67
2022/10/05 10:25:48;;;;;;;2.10;1.90;;;18.00;87.00;;;;;;5084656;28;20210;-67
2022/10/05 10:28:43;;;;;;;2.45;2.25;;;18.00;87.00;;;;;;5049339;28;20190;-67
2022/10/05 10:32:13;;;;;;;2.10;2.00;;;18.00;87.30;;;;;;5067579;28;20259;-67
2022/10/05 10:35:12;;;;;;;2.20;2.03;;;18.00;87.50;;;;;;5075264;28;20217;-67
2022/10/05 10:38:12;;;;;;;1.75;1.65;;;18.00;87.40;;;;;;5050841;28;20213;-66
2022/10/05 10:41:00;;;;;;;1.83;1.73;;;18.00;87.80;;;;;;5052190;28;20262;-66
2022/10/05 10:43:56;;;;;;;2.20;1.95;;;18.00;88.00;;;;;;5050336;28;20222;-66
2022/10/05 10:46:47;;;;;;;1.90;1.80;;;18.00;88.00;;;;;;5052079;28;20240;-66
2022/10/05 10:49:47;;;;;;;2.20;2.00;;;18.00;88.00;;;;;;5051736;28;20239;-68
2022/10/05 10:52:54;;;;;;;1.83;1.73;;;18.00;88.20;;;;;;5050381;28;20197;-66
2022/10/05 10:55:50;;;;;;;1.90;1.80;;;18.00;88.30;;;;;;5051677;28;20220;-67
2022/10/05 10:58:36;;;;;;;2.10;2.00;;;18.00;88.80;;;;;;5067279;28;20226;-66
2022/10/05 11:01:39;;;;;;;2.20;2.00;;;18.00;88.50;;;;;;5050437;28;20677;-68
2022/10/05 11:04:45;;;;;;;1.70;1.60;;;18.10;89.00;;;;;;5050621;28;20221;-66
2022/10/05 11:07:32;;;;;;;2.00;1.90;;;18.10;89.30;;;;;;5050642;28;20224;-66
2022/10/05 11:10:24;;;;;;;1.90;1.80;;;18.10;89.10;;;;;;5051793;28;20194;-67
2022/10/05 11:14:01;;;;;;;1.90;1.80;;;18.10;89.00;;;;;;5050402;28;20191;-66
2022/10/05 11:16:42;;;;;;;1.80;1.70;;;18.10;89.80;;;;;;5067453;28;20261;-67
2022/10/05 11:19:41;;;;;;;2.00;1.90;;;18.10;89.60;;;;;;5067192;28;20745;-66
2022/10/05 11:22:32;;;;;;;1.70;1.60;;;18.10;89.60;;;;;;5068246;28;20266;-67
2022/10/05 11:25:43;;;;;;;1.85;1.75;;;18.10;90.10;;;;;;5054463;28;20218;-67
2022/10/05 11:28:36;;;;;;;1.80;1.70;;;18.10;90.00;;;;;;5087841;28;20178;-67
2022/10/05 11:31:08;;;;;;;1.92;1.80;;;18.10;89.80;;;;;;5055518;28;20183;-67
2022/10/05 11:33:57;;;;;;;1.98;1.88;;;18.10;90.10;;;;;;5054042;28;20701;-67
2022/10/05 11:36:38;;;;;;;3.08;1.60;;;18.10;89.80;;;;;;5070936;28;20174;-67
2022/10/05 11:39:22;;;;;;;1.90;1.80;;;18.10;90.30;;;;;;5053997;28;20276;-67
2022/10/05 11:42:38;;;;;;;1.80;1.70;;;18.10;90.10;;;;;;5054085;28;20760;-67
2022/10/05 11:45:42;;;;;;;1.85;1.75;;;18.10;90.20;;;;;;5053924;28;20306;-67
2022/10/05 11:48:50;;;;;;;1.80;1.63;;;18.10;90.20;;;;;;5070923;28;20189;-67
2022/10/05 11:52:05;;;;;;;1.90;1.80;;;18.10;90.40;;;;;;5053831;28;20189;-66
2022/10/05 11:54:59;;;;;;;1.73;1.63;;;18.10;90.10;;;;;;5035780;28;20228;-67
2022/10/05 11:57:39;;;;;;;1.73;1.63;;;18.10;90.00;;;;;;5053624;28;20182;-67
2022/10/05 12:00:21;;;;;;;2.15;1.95;;;18.10;90.40;;;;;;5039946;28;20229;-66
2022/10/05 12:02:56;;;;;;;1.92;1.83;;;18.10;90.60;;;;;;5054598;28;20187;-66
2022/10/05 12:05:48;;;;;;;1.90;1.80;;;18.10;90.40;;;;;;5053523;28;20232;-67
2022/10/05 12:08:33;;;;;;;1.73;1.63;;;18.10;90.40;;;;;;5051758;28;20183;-67
2022/10/05 12:11:11;;;;;;;1.90;1.80;;;18.10;90.50;;;;;;5034899;28;20206;-67
2022/10/05 12:14:41;;;;;;;1.52;1.42;;;18.10;90.80;;;;;;5033426;28;20704;-67
2022/10/05 12:17:22;;;;;;;2.03;1.90;;;18.10;90.80;;;;;;4976821;28;20184;-68
2022/10/05 12:19:57;;;;;;;1.83;1.73;;;18.10;90.30;;;;;;4977249;28;20243;-67
2022/10/05 12:22:51;;;;;;;2.63;1.80;;;18.20;90.40;;;;;;5002344;28;20285;-67
2022/10/05 12:25:46;;;;;;;1.80;1.70;;;18.10;90.80;;;;;;5034699;28;20222;-67
2022/10/05 12:28:21;;;;;;;1.80;1.70;;;18.20;91.00;;;;;;5016866;28;20206;-67
2022/10/05 12:31:06;;;;;;;1.70;1.60;;;18.20;90.90;;;;;;5033721;28;20187;-67
2022/10/05 12:33:54;;;;;;;1.50;1.40;;;18.10;90.60;;;;;;5016811;28;20203;-67
2022/10/05 12:36:47;;;;;;;1.95;1.70;;;18.10;90.70;;;;;;5020779;28;20187;-67
2022/10/05 12:39:41;;;;;;;1.63;1.52;;;18.20;90.70;;;;;;5069742;28;20179;-68
2022/10/05 12:42:26;;;;;;;2.20;2.00;;;18.20;90.90;;;;;;5054078;28;20210;-67
2022/10/05 12:45:18;;;;;;;2.05;1.85;;;18.20;90.70;;;;;;5069311;28;20246;-67
2022/10/05 12:47:56;;;;;;;1.60;1.50;;;18.20;90.60;;;;;;5053363;28;20171;-67
2022/10/05 12:50:27;;;;;;;1.80;1.63;;;18.20;90.70;;;;;;5053963;28;20274;-67
2022/10/05 12:53:31;;;;;;;1.55;1.45;;;18.20;90.60;;;;;;5052597;28;20198;-66
2022/10/05 12:56:09;;;;;;;1.50;1.40;;;18.20;90.80;;;;;;5036117;28;20186;-67
2022/10/05 12:58:57;;;;;;;1.50;1.40;;;18.20;91.00;;;;;;5086476;28;20221;-67
2022/10/05 13:01:40;;;;;;;1.55;1.45;;;18.20;90.70;;;;;;5052669;28;20255;-67
2022/10/05 13:04:39;;;;;;;1.85;1.50;;;18.20;90.80;;;;;;5069149;28;20226;-67
2022/10/05 13:07:26;;;;;;;2.03;1.80;;;18.20;91.00;;;;;;5069255;28;20191;-68
2022/10/05 13:10:19;;;;;;;1.63;1.52;;;18.20;91.10;;;;;;5052642;28;20225;-68
2022/10/05 13:13:32;;;;;;;1.60;1.50;;;18.20;91.20;;;;;;5052343;28;20187;-68
2022/10/05 13:16:22;;;;;;;1.67;1.58;;;18.20;91.00;;;;;;5068950;28;20189;-67
2022/10/05 13:19:05;;;;;;;1.77;1.67;;;18.20;91.00;;;;;;5053390;28;20240;-67
2022/10/05 13:21:55;;;;;;;2.40;1.52;;;18.20;91.10;;;;;;5069088;28;20677;-68
2022/10/05 13:24:25;;;;;;;2.15;1.60;;;18.20;91.00;;;;;;5052281;28;20228;-69
2022/10/05 13:27:03;;;;;;;2.10;1.90;;;18.20;90.90;;;;;;5068742;28;20186;-67
2022/10/05 13:29:44;;;;;;;2.80;1.55;;;18.20;91.00;;;;;;5053341;28;20178;-68
2022/10/05 13:32:24;;;;;;;3.00;1.45;;;18.20;90.60;;;;;;5051988;28;20206;-68
2022/10/05 13:35:15;;;;;;;2.25;1.85;;;18.20;90.90;;;;;;5068396;28;20233;-68
2022/10/05 13:38:33;;;;;;;2.55;1.80;;;18.20;90.90;;;;;;5085448;28;20191;-68
2022/10/05 13:41:24;;;;;;;2.17;1.60;;;18.20;91.30;;;;;;5050557;28;20194;-68
2022/10/05 13:44:13;;;;;;;1.60;1.50;;;18.20;91.00;;;;;;5017296;28;20254;-67
2022/10/05 13:47:38;;;;;;;2.03;1.63;;;18.20;90.90;;;;;;5048457;28;20194;-68
2022/10/05 13:50:19;;;;;;;1.67;1.58;;;18.30;91.10;;;;;;5051245;28;20238;-67
2022/10/05 13:52:44;;;;;;;1.85;1.52;;;18.20;91.00;;;;;;5034885;28;20189;-67
2022/10/05 13:55:34;;;;;;;1.80;1.40;;;18.20;91.20;;;;;;5068101;28;20214;-67
2022/10/05 13:58:27;;;;;;;2.58;1.80;;;18.20;91.20;;;;;;5051760;28;20255;-67
2022/10/05 14:00:58;;;;;;;1.70;1.60;;;18.20;91.30;;;;;;5051624;28;20186;-67
2022/10/05 14:03:29;;;;;;;1.95;1.75;;;18.20;91.60;;;;;;5051009;28;20222;-67
2022/10/05 14:06:00;;;;;;;1.70;1.60;;;18.30;91.60;;;;;;5034800;28;20187;-67
2022/10/05 14:08:49;;;;;;;1.88;1.77;;;18.30;91.50;;;;;;5052724;28;20186;-70
2022/10/05 14:11:34;;;;;;;1.88;1.50;;;18.20;91.30;;;;;;5051562;28;20182;-67
2022/10/05 14:14:09;;;;;;;3.35;1.70;;;18.20;91.10;;;;;;5084293;22;20597;-73
2022/10/05 14:16:51;;;;;;;1.67;1.52;;;18.30;91.10;;;;;;5108760;28;20192;-72
2022/10/05 14:19:43;;;;;;;1.70;1.60;;;18.30;91.20;;;;;;5065515;28;20177;-73
2022/10/05 14:22:23;;;;;;;1.92;1.70;;;18.30;91.40;;;;;;5071207;28;20200;-73
2022/10/05 14:25:12;;;;;;;1.77;1.67;;;18.30;91.40;;;;;;5099906;28;20272;-73
2022/10/05 14:27:58;;;;;;;3.05;1.77;;;18.30;91.60;;;;;;5091721;28;20211;-73
2022/10/05 14:30:28;;;;;;;2.45;1.60;;;18.30;91.20;;;;;;5092318;28;20180;-73
2022/10/05 14:33:03;;;;;;;1.65;1.55;;;18.30;91.30;;;;;;5091205;28;20173;-73
2022/10/05 14:35:49;;;;;;;1.60;1.50;;;18.30;91.30;;;;;;5090950;28;20208;-72
2022/10/05 14:38:50;;;;;;;2.25;1.58;;;18.30;91.40;;;;;;5091120;28;20177;-73
2022/10/05 14:41:20;;;;;;;2.03;1.75;;;18.30;91.80;;;;;;5073912;28;20242;-73
2022/10/05 14:44:07;;;;;;;1.90;1.70;;;18.20;91.50;;;;;;5090901;28;20222;-73